sensor_id;sensor_type;location;lat;lon;timestamp;temperature;humidity
58469;DHT22;44257;44.804;10.220;2023-07-13T00:00:26;25.20;99.90
58469;DHT22;44257;44.804;10.220;2023-07-13T00:02:52;25.20;99.90
58469;DHT22;44257;44.804;10.220;2023-07-13T00:05:20;25.10;99.90
58469;DHT22;44257;44.804;10.220;2023-07-13T00:07:47;25.10;99.90
58469;DHT22;44257;44.804;10.220;2023-07-13T00:10:14;25.10;99.90
58469;DHT22;44257;44.804;10.220;2023-07-13T00:12:40;25.00;99.90
58469;DHT22;44257;44.804;10.220;2023-07-13T00:15:15;24.90;99.90
58469;DHT22;44257;44.804;10.220;2023-07-13T00:17:42;24.90;99.90
58469;DHT22;44257;44.804;10.220;2023-07-13T00:20:10;24.80;99.90
58469;DHT22;44257;44.804;10.220;2023-07-13T00:22:37;24.80;99.90
58469;DHT22;44257;44.804;10.220;2023-07-13T00:25:03;24.70;99.90
58469;DHT22;44257;44.804;10.220;2023-07-13T00:27:29;24.60;99.90
58469;DHT22;44257;44.804;10.220;2023-07-13T00:29:58;24.70;99.90
58469;DHT22;44257;44.804;10.220;2023-07-13T00:32:24;24.70;99.90
58469;DHT22;44257;44.804;10.220;2023-07-13T00:34:53;24.60;99.90
58469;DHT22;44257;44.804;10.220;2023-07-13T00:37:19;24.60;99.90
58469;DHT22;44257;44.804;10.220;2023-07-13T00:39:45;24.50;99.90
58469;DHT22;44257;44.804;10.220;2023-07-13T00:42:11;24.50;99.90
58469;DHT22;44257;44.804;10.220;2023-07-13T00:44:37;24.40;99.90
58469;DHT22;44257;44.804;10.220;2023-07-13T00:47:05;24.30;99.90
58469;DHT22;44257;44.804;10.220;2023-07-13T00:49:32;24.20;99.90
58469;DHT22;44257;44.804;10.220;2023-07-13T00:52:06;24.10;99.90
58469;DHT22;44257;44.804;10.220;2023-07-13T00:54:37;24.10;99.90
58469;DHT22;44257;44.804;10.220;2023-07-13T00:57:07;24.10;99.90
58469;DHT22;44257;44.804;10.220;2023-07-13T00:59:35;24.10;99.90
58469;DHT22;44257;44.804;10.220;2023-07-13T01:02:03;24.00;99.90
58469;DHT22;44257;44.804;10.220;2023-07-13T01:04:29;23.90;99.90
58469;DHT22;44257;44.804;10.220;2023-07-13T01:06:56;23.80;99.90
58469;DHT22;44257;44.804;10.220;2023-07-13T01:09:22;23.70;99.90
58469;DHT22;44257;44.804;10.220;2023-07-13T01:11:49;23.70;99.90
58469;DHT22;44257;44.804;10.220;2023-07-13T01:14:15;23.70;99.90
58469;DHT22;44257;44.804;10.220;2023-07-13T01:16:53;23.70;99.90
58469;DHT22;44257;44.804;10.220;2023-07-13T01:22:13;23.60;99.90
58469;DHT22;44257;44.804;10.220;2023-07-13T01:24:42;23.60;99.90
58469;DHT22;44257;44.804;10.220;2023-07-13T01:27:13;23.60;99.90
58469;DHT22;44257;44.804;10.220;2023-07-13T01:29:41;23.60;99.90
58469;DHT22;44257;44.804;10.220;2023-07-13T01:32:09;23.60;99.90
58469;DHT22;44257;44.804;10.220;2023-07-13T01:34:36;23.50;99.90
58469;DHT22;44257;44.804;10.220;2023-07-13T01:37:04;23.40;99.90
58469;DHT22;44257;44.804;10.220;2023-07-13T01:39:30;23.40;99.90
58469;DHT22;44257;44.804;10.220;2023-07-13T01:41:57;23.40;99.90
58469;DHT22;44257;44.804;10.220;2023-07-13T01:44:23;23.30;99.90
58469;DHT22;44257;44.804;10.220;2023-07-13T01:46:49;23.20;99.90
58469;DHT22;44257;44.804;10.220;2023-07-13T01:49:16;23.10;99.90
58469;DHT22;44257;44.804;10.220;2023-07-13T01:51:42;23.00;99.90
58469;DHT22;44257;44.804;10.220;2023-07-13T01:54:08;23.00;99.90
58469;DHT22;44257;44.804;10.220;2023-07-13T01:56:33;22.90;99.90
58469;DHT22;44257;44.804;10.220;2023-07-13T01:58:59;22.80;99.90
58469;DHT22;44257;44.804;10.220;2023-07-13T02:01:26;22.80;99.90
58469;DHT22;44257;44.804;10.220;2023-07-13T02:03:53;22.80;99.90
58469;DHT22;44257;44.804;10.220;2023-07-13T02:06:20;22.70;99.90
58469;DHT22;44257;44.804;10.220;2023-07-13T02:08:47;22.60;99.90
58469;DHT22;44257;44.804;10.220;2023-07-13T02:11:13;22.50;99.90
58469;DHT22;44257;44.804;10.220;2023-07-13T02:13:39;22.50;99.90
58469;DHT22;44257;44.804;10.220;2023-07-13T02:16:05;22.50;99.90
58469;DHT22;44257;44.804;10.220;2023-07-13T02:18:32;22.50;99.90
58469;DHT22;44257;44.804;10.220;2023-07-13T02:20:57;22.50;99.90
58469;DHT22;44257;44.804;10.220;2023-07-13T02:23:23;22.50;99.90
58469;DHT22;44257;44.804;10.220;2023-07-13T02:25:57;22.50;99.90
58469;DHT22;44257;44.804;10.220;2023-07-13T02:28:23;22.40;99.90
58469;DHT22;44257;44.804;10.220;2023-07-13T02:30:49;22.40;99.90
58469;DHT22;44257;44.804;10.220;2023-07-13T02:33:14;22.30;99.90
58469;DHT22;44257;44.804;10.220;2023-07-13T02:35:40;22.30;99.90
58469;DHT22;44257;44.804;10.220;2023-07-13T02:38:06;22.30;99.90
58469;DHT22;44257;44.804;10.220;2023-07-13T02:40:33;22.30;99.90
58469;DHT22;44257;44.804;10.220;2023-07-13T02:42:59;22.30;99.90
58469;DHT22;44257;44.804;10.220;2023-07-13T02:45:25;22.30;99.90
58469;DHT22;44257;44.804;10.220;2023-07-13T02:47:51;22.30;99.90
58469;DHT22;44257;44.804;10.220;2023-07-13T02:50:17;22.20;99.90
58469;DHT22;44257;44.804;10.220;2023-07-13T02:52:43;22.20;99.90
58469;DHT22;44257;44.804;10.220;2023-07-13T02:55:09;22.10;99.90
58469;DHT22;44257;44.804;10.220;2023-07-13T02:57:35;22.00;99.90
58469;DHT22;44257;44.804;10.220;2023-07-13T03:00:02;22.00;99.90
58469;DHT22;44257;44.804;10.220;2023-07-13T03:02:32;22.00;99.90
58469;DHT22;44257;44.804;10.220;2023-07-13T03:04:58;22.00;99.90
58469;DHT22;44257;44.804;10.220;2023-07-13T03:07:24;22.00;99.90
58469;DHT22;44257;44.804;10.220;2023-07-13T03:09:57;22.00;99.90
58469;DHT22;44257;44.804;10.220;2023-07-13T03:12:25;22.20;99.90
58469;DHT22;44257;44.804;10.220;2023-07-13T03:14:51;22.20;99.90
58469;DHT22;44257;44.804;10.220;2023-07-13T03:17:17;22.10;99.90
58469;DHT22;44257;44.804;10.220;2023-07-13T03:19:43;22.10;99.90
58469;DHT22;44257;44.804;10.220;2023-07-13T03:22:10;22.00;99.90
58469;DHT22;44257;44.804;10.220;2023-07-13T03:24:38;22.00;99.90
58469;DHT22;44257;44.804;10.220;2023-07-13T03:27:06;22.00;99.90
58469;DHT22;44257;44.804;10.220;2023-07-13T03:29:35;22.00;99.90
58469;DHT22;44257;44.804;10.220;2023-07-13T03:32:01;22.10;99.90
58469;DHT22;44257;44.804;10.220;2023-07-13T03:34:27;22.10;99.90
58469;DHT22;44257;44.804;10.220;2023-07-13T03:36:56;22.10;99.90
58469;DHT22;44257;44.804;10.220;2023-07-13T03:39:22;22.10;99.90
58469;DHT22;44257;44.804;10.220;2023-07-13T03:41:52;22.10;99.90
58469;DHT22;44257;44.804;10.220;2023-07-13T03:44:19;22.10;99.90
58469;DHT22;44257;44.804;10.220;2023-07-13T03:46:49;22.00;99.90
58469;DHT22;44257;44.804;10.220;2023-07-13T03:49:15;22.00;99.90
58469;DHT22;44257;44.804;10.220;2023-07-13T03:51:41;22.00;99.90
58469;DHT22;44257;44.804;10.220;2023-07-13T03:54:07;22.00;99.90
58469;DHT22;44257;44.804;10.220;2023-07-13T03:56:33;22.10;99.90
58469;DHT22;44257;44.804;10.220;2023-07-13T03:59:00;22.10;99.90
58469;DHT22;44257;44.804;10.220;2023-07-13T04:01:26;22.10;99.90
58469;DHT22;44257;44.804;10.220;2023-07-13T04:03:52;22.20;99.90
58469;DHT22;44257;44.804;10.220;2023-07-13T04:06:23;22.10;99.90
58469;DHT22;44257;44.804;10.220;2023-07-13T04:08:57;22.10;99.90
58469;DHT22;44257;44.804;10.220;2023-07-13T04:11:26;22.20;99.90
58469;DHT22;44257;44.804;10.220;2023-07-13T04:13:52;22.20;99.90
58469;DHT22;44257;44.804;10.220;2023-07-13T04:16:19;22.30;99.90
58469;DHT22;44257;44.804;10.220;2023-07-13T04:18:46;22.40;99.90
58469;DHT22;44257;44.804;10.220;2023-07-13T04:21:13;22.50;99.90
58469;DHT22;44257;44.804;10.220;2023-07-13T04:23:39;22.60;99.90
58469;DHT22;44257;44.804;10.220;2023-07-13T04:26:05;22.70;99.90
58469;DHT22;44257;44.804;10.220;2023-07-13T04:28:31;22.80;99.90
58469;DHT22;44257;44.804;10.220;2023-07-13T04:30:57;22.90;99.90
58469;DHT22;44257;44.804;10.220;2023-07-13T04:33:23;23.10;99.90
58469;DHT22;44257;44.804;10.220;2023-07-13T04:35:50;23.20;99.90
58469;DHT22;44257;44.804;10.220;2023-07-13T04:38:20;23.30;99.90
58469;DHT22;44257;44.804;10.220;2023-07-13T04:40:46;23.30;99.90
58469;DHT22;44257;44.804;10.220;2023-07-13T04:43:13;23.40;99.90
58469;DHT22;44257;44.804;10.220;2023-07-13T04:45:39;23.40;99.90
58469;DHT22;44257;44.804;10.220;2023-07-13T04:48:05;23.40;99.90
58469;DHT22;44257;44.804;10.220;2023-07-13T04:50:31;23.50;99.90
58469;DHT22;44257;44.804;10.220;2023-07-13T04:52:57;23.50;99.90
58469;DHT22;44257;44.804;10.220;2023-07-13T04:55:23;23.60;99.90
58469;DHT22;44257;44.804;10.220;2023-07-13T04:57:49;23.50;99.90
58469;DHT22;44257;44.804;10.220;2023-07-13T05:00:15;23.60;99.90
58469;DHT22;44257;44.804;10.220;2023-07-13T05:02:44;23.60;99.90
58469;DHT22;44257;44.804;10.220;2023-07-13T05:05:11;23.50;99.90
58469;DHT22;44257;44.804;10.220;2023-07-13T05:07:37;23.50;99.90
58469;DHT22;44257;44.804;10.220;2023-07-13T05:10:03;23.60;99.90
58469;DHT22;44257;44.804;10.220;2023-07-13T05:12:30;23.60;99.90
58469;DHT22;44257;44.804;10.220;2023-07-13T05:14:56;23.50;99.90
58469;DHT22;44257;44.804;10.220;2023-07-13T05:17:22;23.50;99.90
58469;DHT22;44257;44.804;10.220;2023-07-13T05:19:48;23.60;99.90
58469;DHT22;44257;44.804;10.220;2023-07-13T05:22:13;23.60;99.90
58469;DHT22;44257;44.804;10.220;2023-07-13T05:24:39;23.60;99.90
58469;DHT22;44257;44.804;10.220;2023-07-13T05:27:05;23.70;99.90
58469;DHT22;44257;44.804;10.220;2023-07-13T05:29:31;23.70;99.90
58469;DHT22;44257;44.804;10.220;2023-07-13T05:31:57;23.90;99.90
58469;DHT22;44257;44.804;10.220;2023-07-13T05:34:23;24.00;99.90
58469;DHT22;44257;44.804;10.220;2023-07-13T05:36:49;24.10;99.90
58469;DHT22;44257;44.804;10.220;2023-07-13T05:39:16;24.20;99.90
58469;DHT22;44257;44.804;10.220;2023-07-13T05:41:41;24.20;99.90
58469;DHT22;44257;44.804;10.220;2023-07-13T05:44:07;24.00;99.90
58469;DHT22;44257;44.804;10.220;2023-07-13T05:46:33;23.90;99.90
58469;DHT22;44257;44.804;10.220;2023-07-13T05:48:59;23.90;99.90
58469;DHT22;44257;44.804;10.220;2023-07-13T05:51:25;23.80;99.90
58469;DHT22;44257;44.804;10.220;2023-07-13T05:53:51;23.70;99.90
58469;DHT22;44257;44.804;10.220;2023-07-13T05:56:17;23.60;99.90
58469;DHT22;44257;44.804;10.220;2023-07-13T05:58:43;23.50;99.90
58469;DHT22;44257;44.804;10.220;2023-07-13T06:01:11;23.50;99.90
58469;DHT22;44257;44.804;10.220;2023-07-13T06:03:37;23.40;99.90
58469;DHT22;44257;44.804;10.220;2023-07-13T06:06:05;23.40;99.90
58469;DHT22;44257;44.804;10.220;2023-07-13T06:08:32;23.30;99.90
58469;DHT22;44257;44.804;10.220;2023-07-13T06:11:14;23.30;99.90
58469;DHT22;44257;44.804;10.220;2023-07-13T06:13:40;23.40;99.90
58469;DHT22;44257;44.804;10.220;2023-07-13T06:16:07;23.40;99.90
58469;DHT22;44257;44.804;10.220;2023-07-13T06:18:35;23.40;99.90
58469;DHT22;44257;44.804;10.220;2023-07-13T06:21:13;23.40;99.90
58469;DHT22;44257;44.804;10.220;2023-07-13T06:23:39;23.40;99.90
58469;DHT22;44257;44.804;10.220;2023-07-13T06:26:06;23.40;99.90
58469;DHT22;44257;44.804;10.220;2023-07-13T06:28:32;23.40;99.90
58469;DHT22;44257;44.804;10.220;2023-07-13T06:30:58;23.40;99.90
58469;DHT22;44257;44.804;10.220;2023-07-13T06:33:24;23.40;99.90
58469;DHT22;44257;44.804;10.220;2023-07-13T06:35:50;23.40;99.90
58469;DHT22;44257;44.804;10.220;2023-07-13T06:38:16;23.40;99.90
58469;DHT22;44257;44.804;10.220;2023-07-13T06:40:42;23.40;99.90
58469;DHT22;44257;44.804;10.220;2023-07-13T06:43:08;23.30;99.90
58469;DHT22;44257;44.804;10.220;2023-07-13T06:45:41;23.20;99.90
58469;DHT22;44257;44.804;10.220;2023-07-13T06:48:07;23.20;99.90
58469;DHT22;44257;44.804;10.220;2023-07-13T06:50:33;23.10;99.90
58469;DHT22;44257;44.804;10.220;2023-07-13T06:53:00;23.10;99.90
58469;DHT22;44257;44.804;10.220;2023-07-13T06:55:26;23.20;99.90
58469;DHT22;44257;44.804;10.220;2023-07-13T06:57:52;23.10;99.90
58469;DHT22;44257;44.804;10.220;2023-07-13T07:00:18;23.10;99.90
58469;DHT22;44257;44.804;10.220;2023-07-13T07:02:44;23.10;99.90
58469;DHT22;44257;44.804;10.220;2023-07-13T07:05:10;23.10;99.90
58469;DHT22;44257;44.804;10.220;2023-07-13T07:07:36;23.10;99.90
58469;DHT22;44257;44.804;10.220;2023-07-13T07:10:02;23.10;99.90
58469;DHT22;44257;44.804;10.220;2023-07-13T07:12:29;23.10;99.90
58469;DHT22;44257;44.804;10.220;2023-07-13T07:14:55;23.00;99.90
58469;DHT22;44257;44.804;10.220;2023-07-13T07:17:21;23.00;99.90
58469;DHT22;44257;44.804;10.220;2023-07-13T07:19:47;23.00;99.90
58469;DHT22;44257;44.804;10.220;2023-07-13T07:22:13;23.00;99.90
58469;DHT22;44257;44.804;10.220;2023-07-13T07:24:38;23.00;99.90
58469;DHT22;44257;44.804;10.220;2023-07-13T07:27:04;23.00;99.90
58469;DHT22;44257;44.804;10.220;2023-07-13T07:29:30;23.00;99.90
58469;DHT22;44257;44.804;10.220;2023-07-13T07:31:59;23.10;99.90
58469;DHT22;44257;44.804;10.220;2023-07-13T07:34:25;23.00;99.90
58469;DHT22;44257;44.804;10.220;2023-07-13T07:36:51;23.00;99.90
58469;DHT22;44257;44.804;10.220;2023-07-13T07:39:16;22.90;99.90
58469;DHT22;44257;44.804;10.220;2023-07-13T07:41:42;22.90;99.90
58469;DHT22;44257;44.804;10.220;2023-07-13T07:44:08;23.00;99.90
58469;DHT22;44257;44.804;10.220;2023-07-13T07:46:35;22.90;99.90
58469;DHT22;44257;44.804;10.220;2023-07-13T07:49:01;22.80;99.90
58469;DHT22;44257;44.804;10.220;2023-07-13T07:51:27;22.70;99.90
58469;DHT22;44257;44.804;10.220;2023-07-13T07:53:53;22.70;99.90
58469;DHT22;44257;44.804;10.220;2023-07-13T07:56:19;22.70;99.90
58469;DHT22;44257;44.804;10.220;2023-07-13T07:58:45;22.70;99.90
58469;DHT22;44257;44.804;10.220;2023-07-13T08:01:11;22.60;99.90
58469;DHT22;44257;44.804;10.220;2023-07-13T08:03:36;22.50;99.90
58469;DHT22;44257;44.804;10.220;2023-07-13T08:06:02;22.40;99.90
58469;DHT22;44257;44.804;10.220;2023-07-13T08:08:28;22.40;99.90
58469;DHT22;44257;44.804;10.220;2023-07-13T08:10:54;22.40;99.90
58469;DHT22;44257;44.804;10.220;2023-07-13T08:13:20;22.50;99.90
58469;DHT22;44257;44.804;10.220;2023-07-13T08:15:46;22.50;99.90
58469;DHT22;44257;44.804;10.220;2023-07-13T08:18:12;22.50;99.90
58469;DHT22;44257;44.804;10.220;2023-07-13T08:20:38;22.40;99.90
58469;DHT22;44257;44.804;10.220;2023-07-13T08:23:05;22.40;99.90
58469;DHT22;44257;44.804;10.220;2023-07-13T08:25:32;22.40;99.90
58469;DHT22;44257;44.804;10.220;2023-07-13T08:27:58;22.50;99.90
58469;DHT22;44257;44.804;10.220;2023-07-13T08:30:24;22.50;99.90
58469;DHT22;44257;44.804;10.220;2023-07-13T08:32:49;22.60;99.90
58469;DHT22;44257;44.804;10.220;2023-07-13T08:35:16;22.60;99.90
58469;DHT22;44257;44.804;10.220;2023-07-13T08:37:42;22.60;99.90
58469;DHT22;44257;44.804;10.220;2023-07-13T08:40:10;22.70;99.90
58469;DHT22;44257;44.804;10.220;2023-07-13T08:42:49;22.70;99.90
58469;DHT22;44257;44.804;10.220;2023-07-13T08:45:35;22.50;99.90
58469;DHT22;44257;44.804;10.220;2023-07-13T08:48:56;22.50;99.90
58469;DHT22;44257;44.804;10.220;2023-07-13T08:54:37;22.70;99.90
58469;DHT22;44257;44.804;10.220;2023-07-13T08:56:56;22.80;99.90
58469;DHT22;44257;44.804;10.220;2023-07-13T08:59:26;22.90;99.90
58469;DHT22;44257;44.804;10.220;2023-07-13T09:02:23;23.10;99.90
58469;DHT22;44257;44.804;10.220;2023-07-13T09:04:59;23.20;99.90
58469;DHT22;44257;44.804;10.220;2023-07-13T09:07:39;23.30;99.90
58469;DHT22;44257;44.804;10.220;2023-07-13T09:13:00;23.60;99.90
58469;DHT22;44257;44.804;10.220;2023-07-13T09:15:48;24.00;99.90
58469;DHT22;44257;44.804;10.220;2023-07-13T09:18:32;24.30;99.90
58469;DHT22;44257;44.804;10.220;2023-07-13T09:21:21;24.80;99.90
58469;DHT22;44257;44.804;10.220;2023-07-13T09:23:48;25.40;99.90
58469;DHT22;44257;44.804;10.220;2023-07-13T09:26:20;26.00;99.90
58469;DHT22;44257;44.804;10.220;2023-07-13T09:29:33;26.60;99.90
58469;DHT22;44257;44.804;10.220;2023-07-13T09:31:54;26.90;99.90
58469;DHT22;44257;44.804;10.220;2023-07-13T09:34:21;27.50;99.90
58469;DHT22;44257;44.804;10.220;2023-07-13T09:36:47;27.90;99.90
58469;DHT22;44257;44.804;10.220;2023-07-13T09:39:35;28.40;99.90
58469;DHT22;44257;44.804;10.220;2023-07-13T09:42:22;28.90;99.90
58469;DHT22;44257;44.804;10.220;2023-07-13T09:47:20;29.20;99.00
58469;DHT22;44257;44.804;10.220;2023-07-13T09:49:59;29.20;99.90
58469;DHT22;44257;44.804;10.220;2023-07-13T09:52:27;29.30;99.10
58469;DHT22;44257;44.804;10.220;2023-07-13T09:54:54;29.30;99.10
58469;DHT22;44257;44.804;10.220;2023-07-13T09:57:29;29.30;99.20
58469;DHT22;44257;44.804;10.220;2023-07-13T09:59:56;29.40;98.90
58469;DHT22;44257;44.804;10.220;2023-07-13T10:02:34;29.50;98.30
58469;DHT22;44257;44.804;10.220;2023-07-13T10:05:11;29.60;97.60
58469;DHT22;44257;44.804;10.220;2023-07-13T10:07:43;29.60;96.10
58469;DHT22;44257;44.804;10.220;2023-07-13T10:10:21;29.50;97.50
58469;DHT22;44257;44.804;10.220;2023-07-13T10:12:49;29.60;98.30
58469;DHT22;44257;44.804;10.220;2023-07-13T10:15:20;29.70;97.40
58469;DHT22;44257;44.804;10.220;2023-07-13T10:17:46;29.90;96.70
58469;DHT22;44257;44.804;10.220;2023-07-13T10:20:13;30.00;95.80
58469;DHT22;44257;44.804;10.220;2023-07-13T10:22:49;30.10;95.90
58469;DHT22;44257;44.804;10.220;2023-07-13T10:25:23;30.30;96.60
58469;DHT22;44257;44.804;10.220;2023-07-13T10:30:39;30.50;94.90
58469;DHT22;44257;44.804;10.220;2023-07-13T10:33:11;30.60;94.20
58469;DHT22;44257;44.804;10.220;2023-07-13T10:35:40;30.70;92.70
58469;DHT22;44257;44.804;10.220;2023-07-13T10:38:15;30.80;92.20
58469;DHT22;44257;44.804;10.220;2023-07-13T10:41:07;30.80;92.90
58469;DHT22;44257;44.804;10.220;2023-07-13T10:43:46;30.80;93.90
58469;DHT22;44257;44.804;10.220;2023-07-13T10:46:15;30.90;94.20
58469;DHT22;44257;44.804;10.220;2023-07-13T10:48:44;31.10;92.80
58469;DHT22;44257;44.804;10.220;2023-07-13T10:51:13;31.20;93.40
58469;DHT22;44257;44.804;10.220;2023-07-13T10:53:40;31.30;93.70
58469;DHT22;44257;44.804;10.220;2023-07-13T10:58:45;31.50;93.40
58469;DHT22;44257;44.804;10.220;2023-07-13T11:01:17;31.50;92.50
58469;DHT22;44257;44.804;10.220;2023-07-13T11:03:48;31.40;92.10
58469;DHT22;44257;44.804;10.220;2023-07-13T11:08:55;31.20;93.10
58469;DHT22;44257;44.804;10.220;2023-07-13T11:11:35;31.30;92.20
58469;DHT22;44257;44.804;10.220;2023-07-13T11:14:04;31.40;92.30
58469;DHT22;44257;44.804;10.220;2023-07-13T11:16:44;31.50;91.70
58469;DHT22;44257;44.804;10.220;2023-07-13T11:24:29;31.30;92.60
58469;DHT22;44257;44.804;10.220;2023-07-13T11:26:56;31.30;93.50
58469;DHT22;44257;44.804;10.220;2023-07-13T11:31:59;31.70;93.60
58469;DHT22;44257;44.804;10.220;2023-07-13T11:34:35;32.10;93.10
58469;DHT22;44257;44.804;10.220;2023-07-13T11:37:02;32.40;93.20
58469;DHT22;44257;44.804;10.220;2023-07-13T11:39:31;32.40;92.00
58469;DHT22;44257;44.804;10.220;2023-07-13T11:42:04;32.40;92.40
58469;DHT22;44257;44.804;10.220;2023-07-13T11:44:33;32.60;93.00
58469;DHT22;44257;44.804;10.220;2023-07-13T11:47:20;32.90;92.00
58469;DHT22;44257;44.804;10.220;2023-07-13T11:49:53;33.10;90.70
58469;DHT22;44257;44.804;10.220;2023-07-13T11:52:32;33.20;91.10
58469;DHT22;44257;44.804;10.220;2023-07-13T11:55:01;33.40;91.70
58469;DHT22;44257;44.804;10.220;2023-07-13T11:57:33;33.40;91.20
58469;DHT22;44257;44.804;10.220;2023-07-13T12:00:14;33.70;91.80
58469;DHT22;44257;44.804;10.220;2023-07-13T12:02:43;33.90;89.60
58469;DHT22;44257;44.804;10.220;2023-07-13T12:05:12;34.00;90.90
58469;DHT22;44257;44.804;10.220;2023-07-13T12:07:39;34.20;91.10
58469;DHT22;44257;44.804;10.220;2023-07-13T12:12:36;34.20;91.00
58469;DHT22;44257;44.804;10.220;2023-07-13T12:15:11;34.30;90.90
58469;DHT22;44257;44.804;10.220;2023-07-13T12:17:37;34.30;90.10
58469;DHT22;44257;44.804;10.220;2023-07-13T12:20:23;34.30;89.00
58469;DHT22;44257;44.804;10.220;2023-07-13T12:22:50;34.00;87.80
58469;DHT22;44257;44.804;10.220;2023-07-13T12:25:17;33.80;89.30
58469;DHT22;44257;44.804;10.220;2023-07-13T12:27:48;33.70;88.60
58469;DHT22;44257;44.804;10.220;2023-07-13T12:30:30;33.70;91.20
58469;DHT22;44257;44.804;10.220;2023-07-13T12:33:01;33.90;90.60
58469;DHT22;44257;44.804;10.220;2023-07-13T12:35:29;33.90;89.40
58469;DHT22;44257;44.804;10.220;2023-07-13T12:37:57;33.90;90.50
58469;DHT22;44257;44.804;10.220;2023-07-13T12:40:32;33.80;89.00
58469;DHT22;44257;44.804;10.220;2023-07-13T12:42:59;33.90;90.10
58469;DHT22;44257;44.804;10.220;2023-07-13T12:45:26;33.80;89.90
58469;DHT22;44257;44.804;10.220;2023-07-13T12:47:56;33.80;89.60
58469;DHT22;44257;44.804;10.220;2023-07-13T12:50:34;33.70;89.20
58469;DHT22;44257;44.804;10.220;2023-07-13T12:53:04;33.80;91.00
58469;DHT22;44257;44.804;10.220;2023-07-13T12:55:44;33.90;90.50
58469;DHT22;44257;44.804;10.220;2023-07-13T12:58:32;34.00;88.60
58469;DHT22;44257;44.804;10.220;2023-07-13T13:01:02;34.10;88.90
58469;DHT22;44257;44.804;10.220;2023-07-13T13:03:37;34.20;88.00
58469;DHT22;44257;44.804;10.220;2023-07-13T13:06:21;34.10;87.90
58469;DHT22;44257;44.804;10.220;2023-07-13T13:08:54;33.80;88.10
58469;DHT22;44257;44.804;10.220;2023-07-13T13:11:23;33.70;89.70
58469;DHT22;44257;44.804;10.220;2023-07-13T13:13:49;33.70;87.60
58469;DHT22;44257;44.804;10.220;2023-07-13T13:16:29;33.60;90.10
58469;DHT22;44257;44.804;10.220;2023-07-13T13:18:59;33.60;89.70
58469;DHT22;44257;44.804;10.220;2023-07-13T13:21:28;33.90;90.70
58469;DHT22;44257;44.804;10.220;2023-07-13T13:23:53;34.20;90.50
58469;DHT22;44257;44.804;10.220;2023-07-13T13:26:20;34.40;90.00
58469;DHT22;44257;44.804;10.220;2023-07-13T13:28:47;34.60;87.30
58469;DHT22;44257;44.804;10.220;2023-07-13T13:31:16;34.60;88.10
58469;DHT22;44257;44.804;10.220;2023-07-13T13:33:43;34.70;87.40
58469;DHT22;44257;44.804;10.220;2023-07-13T13:36:16;34.80;86.10
58469;DHT22;44257;44.804;10.220;2023-07-13T13:38:43;34.80;87.40
58469;DHT22;44257;44.804;10.220;2023-07-13T13:41:11;34.90;85.20
58469;DHT22;44257;44.804;10.220;2023-07-13T13:43:39;34.70;87.10
58469;DHT22;44257;44.804;10.220;2023-07-13T13:46:23;34.60;87.00
58469;DHT22;44257;44.804;10.220;2023-07-13T13:48:51;34.20;87.20
58469;DHT22;44257;44.804;10.220;2023-07-13T13:51:19;33.70;87.70
58469;DHT22;44257;44.804;10.220;2023-07-13T13:53:46;33.20;88.60
58469;DHT22;44257;44.804;10.220;2023-07-13T13:56:14;32.90;88.80
58469;DHT22;44257;44.804;10.220;2023-07-13T13:58:40;32.70;89.20
58469;DHT22;44257;44.804;10.220;2023-07-13T14:01:24;32.70;89.80
58469;DHT22;44257;44.804;10.220;2023-07-13T14:03:51;32.60;89.60
58469;DHT22;44257;44.804;10.220;2023-07-13T14:06:17;32.60;90.10
58469;DHT22;44257;44.804;10.220;2023-07-13T14:08:43;32.60;90.70
58469;DHT22;44257;44.804;10.220;2023-07-13T14:11:14;32.50;90.20
58469;DHT22;44257;44.804;10.220;2023-07-13T14:13:47;32.50;91.50
58469;DHT22;44257;44.804;10.220;2023-07-13T14:16:18;32.70;91.20
58469;DHT22;44257;44.804;10.220;2023-07-13T14:18:46;33.00;90.80
58469;DHT22;44257;44.804;10.220;2023-07-13T14:21:17;33.30;89.80
58469;DHT22;44257;44.804;10.220;2023-07-13T14:23:44;33.40;90.10
58469;DHT22;44257;44.804;10.220;2023-07-13T14:26:21;33.50;89.80
58469;DHT22;44257;44.804;10.220;2023-07-13T14:28:58;33.40;89.80
58469;DHT22;44257;44.804;10.220;2023-07-13T14:31:27;33.40;89.70
58469;DHT22;44257;44.804;10.220;2023-07-13T14:33:57;33.00;89.70
58469;DHT22;44257;44.804;10.220;2023-07-13T14:36:43;32.70;90.50
58469;DHT22;44257;44.804;10.220;2023-07-13T14:39:22;32.30;90.80
58469;DHT22;44257;44.804;10.220;2023-07-13T14:41:50;32.10;91.10
58469;DHT22;44257;44.804;10.220;2023-07-13T14:44:20;32.00;91.10
58469;DHT22;44257;44.804;10.220;2023-07-13T14:46:49;31.90;91.00
58469;DHT22;44257;44.804;10.220;2023-07-13T14:49:38;31.80;90.90
58469;DHT22;44257;44.804;10.220;2023-07-13T14:52:19;31.60;91.10
58469;DHT22;44257;44.804;10.220;2023-07-13T14:54:46;31.60;91.40
58469;DHT22;44257;44.804;10.220;2023-07-13T14:57:14;31.80;91.40
58469;DHT22;44257;44.804;10.220;2023-07-13T14:59:41;31.80;91.50
58469;DHT22;44257;44.804;10.220;2023-07-13T15:02:33;32.10;91.70
58469;DHT22;44257;44.804;10.220;2023-07-13T15:04:59;32.50;90.50
58469;DHT22;44257;44.804;10.220;2023-07-13T15:07:25;32.80;90.50
58469;DHT22;44257;44.804;10.220;2023-07-13T15:09:51;33.10;89.80
58469;DHT22;44257;44.804;10.220;2023-07-13T15:12:18;33.40;90.30
58469;DHT22;44257;44.804;10.220;2023-07-13T15:14:44;33.50;89.40
58469;DHT22;44257;44.804;10.220;2023-07-13T15:17:31;33.40;90.30
58469;DHT22;44257;44.804;10.220;2023-07-13T15:19:58;33.40;90.50
58469;DHT22;44257;44.804;10.220;2023-07-13T15:22:25;33.60;90.60
58469;DHT22;44257;44.804;10.220;2023-07-13T15:24:50;33.60;90.90
58469;DHT22;44257;44.804;10.220;2023-07-13T15:27:17;33.70;91.10
58469;DHT22;44257;44.804;10.220;2023-07-13T15:29:43;33.80;91.10
58469;DHT22;44257;44.804;10.220;2023-07-13T15:32:13;33.90;89.70
58469;DHT22;44257;44.804;10.220;2023-07-13T15:34:40;33.90;90.00
58469;DHT22;44257;44.804;10.220;2023-07-13T15:37:16;33.70;90.10
58469;DHT22;44257;44.804;10.220;2023-07-13T15:39:42;33.60;90.40
58469;DHT22;44257;44.804;10.220;2023-07-13T15:42:19;33.50;90.50
58469;DHT22;44257;44.804;10.220;2023-07-13T15:44:45;33.40;91.00
58469;DHT22;44257;44.804;10.220;2023-07-13T15:47:13;33.40;91.00
58469;DHT22;44257;44.804;10.220;2023-07-13T15:49:40;33.40;91.00
58469;DHT22;44257;44.804;10.220;2023-07-13T15:52:22;33.30;91.10
58469;DHT22;44257;44.804;10.220;2023-07-13T15:54:48;33.30;90.60
58469;DHT22;44257;44.804;10.220;2023-07-13T15:57:14;33.40;90.30